Dal Kalahari — A8FQ8 — position and weather

sailwx.info

Track history (hours):
 
Tides and Currents Weather Stations Pressure Air Temp Water Temp Dewpoint Dewpoint Depression Visibility Wind Speed Wind Dir Waves Ship Positions

Dal Kalahari

Last reported at 2014-Oct-23 00:00 UTC. Time now 2014-Oct-25 02:44 UTC.
Position S 01°18' E 145°18'.

Length 266 m; beam 37 m; draft 12.5 m.

Type: Ship (hazmat cat C). MMSI: 636090797.

Wind from 150 at 10 knots

Waves 0.5 meters (2 feet), 2 second period

Barometer 1010.4 mb
Air temperature 30.9 ° C
Visibility: greater than 10.8 NM
Dewpoint 23.5 ° C
Water temperature 29.1 ° C

Date/timePositionNaut miles runAvg speedWind from/ knotsBaromVisibWave heightAir tempDewpointWater temp
2014-Oct-23 00:00S 01°18' E 145°18'35614.9 150 / 101010.410.8 0.530.923.529.1
2014-Oct-22 00:00N 03°30' E 141°48'36415.2 290 / 51010.910.8 0.534.024.629.3
2014-Oct-21 00:00N 08°24' E 138°12'36315.1 360 / 51011.410.8 31.723.929.4
2014-Oct-20 00:00N 13°18' E 134°36'34714.5 140 / 51011.810.8 0.528.323.828.7
2014-Oct-19 00:00N 18°00' E 131°06'   080 / 151012.2 5.4 0.529.325.127.2
2014-Oct-16 11:10N 29°36' E 122°28'914.5
2014-Oct-16 10:33N 29°43' E 122°22'1110.7
2014-Oct-16 09:33N 29°50' E 122°13'9 9.1
2014-Oct-16 08:33N 29°54' E 122°03'0 0.3
2014-Oct-16 07:05N 29°53' E 122°03'0 0.0
2014-Oct-16 05:23N 29°53' E 122°03'0 0.0
2014-Oct-16 04:11N 29°53' E 122°03'0 0.0
2014-Oct-16 03:17N 29°53' E 122°03'0 0.0
2014-Oct-16 02:23N 29°53' E 122°03'0 0.0
2014-Oct-16 01:08N 29°53' E 122°03'0 0.0
2014-Oct-16 00:14N 29°53' E 122°03'0 0.0
2014-Oct-15 23:29N 29°53' E 122°03'0 0.0
2014-Oct-15 22:23N 29°53' E 122°03'2 1.9
2014-Oct-15 21:33N 29°54' E 122°05'8 7.8
2014-Oct-15 20:33N 29°51' E 122°12'10 9.7
2014-Oct-15 19:33N 29°45' E 122°21'8 8.1
2014-Oct-15 18:32N 29°45' E 122°31'8 8.6
2014-Oct-15 17:32N 29°50' E 122°39'10 9.6
2014-Oct-15 16:30N 29°56' E 122°48'35 7.0
2014-Oct-15 11:33N 30°30' E 122°36'1111.3
2014-Oct-15 10:33N 30°32' E 122°23'1414.3
2014-Oct-15 09:33N 30°35' E 122°07'8 0.6
2014-Oct-14 21:27N 30°33' E 122°16'6 7.1
2014-Oct-14 20:32N 30°33' E 122°23'1212.2
2014-Oct-14 19:31N 30°32' E 122°38'1818.7
2014-Oct-14 18:33N 30°41' E 122°56'  
Track history (hours):
 
Tides and Currents Weather Stations Pressure Air Temp Water Temp Dewpoint Dewpoint Depression Visibility Wind Speed Wind Dir Waves Ship Positions

Dal Kalahari

Last reported at 2014-Oct-23 00:00 UTC. Time now 2014-Oct-25 02:44 UTC.
Position S 01°18' E 145°18'.

Length 266 m; beam 37 m; draft 12.5 m.

Type: Ship (hazmat cat C). MMSI: 636090797.

Wind from 150 at 10 knots

Waves 0.5 meters (2 feet), 2 second period

Barometer 1010.4 mb
Air temperature 30.9 ° C
Visibility: greater than 10.8 NM
Dewpoint 23.5 ° C
Water temperature 29.1 ° C

Date/timePositionNaut miles runAvg speedWind from/ knotsBaromVisibWave heightAir tempDewpointWater temp
2014-Oct-23 00:00S 01°18' E 145°18'35614.9 150 / 101010.410.8 0.530.923.529.1
2014-Oct-22 00:00N 03°30' E 141°48'36415.2 290 / 51010.910.8 0.534.024.629.3
2014-Oct-21 00:00N 08°24' E 138°12'36315.1 360 / 51011.410.8 31.723.929.4
2014-Oct-20 00:00N 13°18' E 134°36'34714.5 140 / 51011.810.8 0.528.323.828.7
2014-Oct-19 00:00N 18°00' E 131°06'   080 / 151012.2 5.4 0.529.325.127.2
2014-Oct-16 11:10N 29°36' E 122°28'914.5
2014-Oct-16 10:33N 29°43' E 122°22'1110.7
2014-Oct-16 09:33N 29°50' E 122°13'9 9.1
2014-Oct-16 08:33N 29°54' E 122°03'0 0.3
2014-Oct-16 07:05N 29°53' E 122°03'0 0.0
2014-Oct-16 05:23N 29°53' E 122°03'0 0.0
2014-Oct-16 04:11N 29°53' E 122°03'0 0.0
2014-Oct-16 03:17N 29°53' E 122°03'0 0.0
2014-Oct-16 02:23N 29°53' E 122°03'0 0.0
2014-Oct-16 01:08N 29°53' E 122°03'0 0.0
2014-Oct-16 00:14N 29°53' E 122°03'0 0.0
2014-Oct-15 23:29N 29°53' E 122°03'0 0.0
2014-Oct-15 22:23N 29°53' E 122°03'2 1.9
2014-Oct-15 21:33N 29°54' E 122°05'8 7.8
2014-Oct-15 20:33N 29°51' E 122°12'10 9.7
2014-Oct-15 19:33N 29°45' E 122°21'8 8.1
2014-Oct-15 18:32N 29°45' E 122°31'8 8.6
2014-Oct-15 17:32N 29°50' E 122°39'10 9.6
2014-Oct-15 16:30N 29°56' E 122°48'35 7.0
2014-Oct-15 11:33N 30°30' E 122°36'1111.3
2014-Oct-15 10:33N 30°32' E 122°23'1414.3
2014-Oct-15 09:33N 30°35' E 122°07'8 0.6
2014-Oct-14 21:27N 30°33' E 122°16'6 7.1
2014-Oct-14 20:32N 30°33' E 122°23'1212.2
2014-Oct-14 19:31N 30°32' E 122°38'1818.7
2014-Oct-14 18:33N 30°41' E 122°56'  

Dump ship's entire track history